createdAt,value
2023-03-29T00:01:10.127Z,1.97
2023-03-29T00:03:39.514Z,1.90
2023-03-29T00:06:08.532Z,2.07
2023-03-29T00:08:40.025Z,1.60
2023-03-29T00:11:08.786Z,1.77
2023-03-29T00:13:38.187Z,1.70
2023-03-29T00:16:07.268Z,1.80
2023-03-29T00:18:36.122Z,1.90
2023-03-29T00:21:05.316Z,1.73
2023-03-29T00:23:33.947Z,2.10
2023-03-29T00:26:07.180Z,1.80
2023-03-29T00:28:36.486Z,2.50
2023-03-29T00:31:08.328Z,1.80
2023-03-29T00:33:37.101Z,1.77
2023-03-29T00:36:07.339Z,1.80
2023-03-29T00:38:36.797Z,2.80
2023-03-29T00:41:07.796Z,1.83
2023-03-29T00:43:56.966Z,1.80
2023-03-29T00:46:27.175Z,2.17
2023-03-29T00:48:58.126Z,2.27
2023-03-29T00:51:29.327Z,2.00
2023-03-29T00:54:00.810Z,2.07
2023-03-29T00:56:34.766Z,1.93
2023-03-29T00:59:05.749Z,1.83
2023-03-29T01:01:38.110Z,1.90
2023-03-29T01:04:09.464Z,2.00
2023-03-29T01:06:39.265Z,2.00
2023-03-29T01:09:10.306Z,1.50
2023-03-29T01:11:42.813Z,1.93
2023-03-29T01:14:15.256Z,1.97
2023-03-29T01:16:43.891Z,2.13
2023-03-29T01:19:15.379Z,2.30
2023-03-29T01:21:46.000Z,2.03
2023-03-29T01:24:34.333Z,1.70
2023-03-29T01:27:11.310Z,1.50
2023-03-29T01:29:45.541Z,1.83
2023-03-29T01:32:17.104Z,1.70
2023-03-29T01:34:50.269Z,2.13
2023-03-29T01:37:24.564Z,2.07
2023-03-29T01:39:53.725Z,1.67
2023-03-29T01:42:33.247Z,1.57
2023-03-29T01:45:09.760Z,2.10
2023-03-29T01:47:46.476Z,1.50
2023-03-29T01:50:18.369Z,1.70
2023-03-29T01:52:51.319Z,1.40
2023-03-29T01:55:23.595Z,1.60
2023-03-29T01:57:53.976Z,1.70
2023-03-29T02:00:27.442Z,1.83
2023-03-29T02:03:00.085Z,1.60
2023-03-29T02:05:30.617Z,1.60
2023-03-29T02:08:00.583Z,1.90
2023-03-29T02:10:29.493Z,1.67
2023-03-29T02:12:58.496Z,2.10
2023-03-29T02:15:28.735Z,2.10
2023-03-29T02:17:57.789Z,2.00
2023-03-29T02:20:29.146Z,1.60
2023-03-29T02:23:03.191Z,1.77
2023-03-29T02:25:32.391Z,1.90
2023-03-29T02:28:01.794Z,1.73
2023-03-29T02:30:34.535Z,1.60
2023-03-29T02:33:06.957Z,1.70
2023-03-29T02:35:39.197Z,1.90
2023-03-29T02:38:10.499Z,1.90
2023-03-29T02:40:40.127Z,2.13
2023-03-29T02:43:09.200Z,1.87
2023-03-29T02:45:40.496Z,1.70
2023-03-29T02:48:11.679Z,2.00
2023-03-29T02:50:41.615Z,2.23
2023-03-29T02:53:14.149Z,2.20
2023-03-29T02:55:42.971Z,1.70
2023-03-29T02:58:13.397Z,2.20
2023-03-29T03:00:45.718Z,1.67
2023-03-29T03:03:15.546Z,1.80
2023-03-29T03:05:44.452Z,2.23
2023-03-29T03:08:13.968Z,2.07
2023-03-29T03:10:42.698Z,1.70
2023-03-29T03:13:11.328Z,2.30
2023-03-29T03:15:42.596Z,2.07
2023-03-29T03:18:12.688Z,2.00
2023-03-29T03:20:41.365Z,1.70
2023-03-29T03:23:10.618Z,1.60
2023-03-29T03:25:39.228Z,2.07
2023-03-29T03:28:07.948Z,2.10
2023-03-29T03:30:36.539Z,1.97
2023-03-29T03:33:05.140Z,2.00
2023-03-29T03:35:35.629Z,2.20
2023-03-29T03:38:04.273Z,1.83
2023-03-29T03:40:33.288Z,2.20
2023-03-29T03:43:01.978Z,2.00
2023-03-29T03:45:31.275Z,2.33
2023-03-29T03:47:59.918Z,2.53
2023-03-29T03:50:28.622Z,2.30
2023-03-29T03:52:58.601Z,2.30
2023-03-29T03:55:29.944Z,2.10
2023-03-29T03:57:58.624Z,2.43
2023-03-29T04:00:27.398Z,2.50
2023-03-29T04:02:56.290Z,2.00
2023-03-29T04:05:25.364Z,1.80
2023-03-29T04:07:54.264Z,1.93
2023-03-29T04:10:24.550Z,2.03
2023-03-29T04:12:53.185Z,1.90
2023-03-29T04:15:22.063Z,2.10
2023-03-29T04:17:50.822Z,2.57
2023-03-29T04:20:19.669Z,2.50
2023-03-29T04:22:48.464Z,2.67
2023-03-29T04:25:17.373Z,2.20
2023-03-29T04:27:47.358Z,2.50
2023-03-29T04:30:16.937Z,2.10
2023-03-29T04:32:45.571Z,2.10
2023-03-29T04:35:14.401Z,2.40
2023-03-29T04:37:43.183Z,2.60
2023-03-29T04:40:14.305Z,2.70
2023-03-29T04:42:44.282Z,2.20
2023-03-29T04:45:14.895Z,2.07
2023-03-29T04:47:43.610Z,2.40
2023-03-29T04:50:12.942Z,2.17
2023-03-29T04:52:42.084Z,2.13
2023-03-29T04:55:12.082Z,4.60
2023-03-29T04:57:41.288Z,15.80
2023-03-29T05:00:15.135Z,8.83
2023-03-29T05:02:46.122Z,3.60
2023-03-29T05:05:15.267Z,3.27
2023-03-29T05:07:44.336Z,2.53
2023-03-29T05:10:13.598Z,3.27
2023-03-29T05:12:42.204Z,2.90
2023-03-29T05:15:11.682Z,2.60
2023-03-29T05:17:40.758Z,3.03
2023-03-29T05:20:13.003Z,2.90
2023-03-29T05:22:41.679Z,2.20
2023-03-29T05:25:13.246Z,2.87
2023-03-29T05:27:42.574Z,3.27
2023-03-29T05:30:12.648Z,2.93
2023-03-29T05:32:41.665Z,2.23
2023-03-29T05:35:11.932Z,2.50
2023-03-29T05:37:40.562Z,2.90
2023-03-29T05:40:10.522Z,2.70
2023-03-29T05:42:39.229Z,2.43
2023-03-29T05:45:09.193Z,3.23
2023-03-29T05:47:37.925Z,3.30
2023-03-29T05:50:09.638Z,4.00
2023-03-29T05:52:41.100Z,3.00
2023-03-29T05:55:10.707Z,3.40
2023-03-29T05:57:39.613Z,4.63
2023-03-29T06:00:16.878Z,3.07
2023-03-29T06:02:45.694Z,2.80
2023-03-29T06:05:14.918Z,3.50
2023-03-29T06:07:45.068Z,3.60
2023-03-29T06:10:14.097Z,3.77
2023-03-29T06:12:42.942Z,3.03
2023-03-29T06:15:13.419Z,3.80
2023-03-29T06:17:42.166Z,3.03
2023-03-29T06:20:11.869Z,2.80
2023-03-29T06:22:41.249Z,3.20
2023-03-29T06:25:12.256Z,3.50
2023-03-29T06:27:40.850Z,3.10
2023-03-29T06:30:10.233Z,3.20
2023-03-29T06:32:38.906Z,3.20
2023-03-29T06:35:08.552Z,4.10
2023-03-29T06:37:37.353Z,3.40
2023-03-29T06:40:09.330Z,4.27
2023-03-29T06:42:40.522Z,4.33
2023-03-29T06:45:10.355Z,4.20
2023-03-29T06:47:38.981Z,3.57
2023-03-29T06:50:08.682Z,3.10
2023-03-29T06:52:42.504Z,2.83
2023-03-29T06:55:12.028Z,3.20
2023-03-29T06:57:42.547Z,3.27
2023-03-29T07:00:19.072Z,3.10
2023-03-29T07:02:48.159Z,2.57
2023-03-29T07:05:17.322Z,3.20
2023-03-29T07:07:56.835Z,3.30
2023-03-29T07:10:28.095Z,3.40
2023-03-29T07:12:58.127Z,2.73
2023-03-29T07:15:27.560Z,3.30
2023-03-29T07:17:57.523Z,3.23
2023-03-29T07:20:26.997Z,2.90
2023-03-29T07:22:56.088Z,3.10
2023-03-29T07:25:27.454Z,2.60
2023-03-29T07:27:56.512Z,2.90
2023-03-29T07:30:31.678Z,2.83
2023-03-29T07:33:01.145Z,3.40
2023-03-29T07:35:30.854Z,2.30
2023-03-29T07:37:59.735Z,2.20
2023-03-29T07:40:28.482Z,2.33
2023-03-29T07:42:58.825Z,3.73
2023-03-29T07:45:29.930Z,3.70
2023-03-29T07:48:02.104Z,4.10
2023-03-29T07:50:32.594Z,3.50
2023-03-29T07:53:02.958Z,2.73
2023-03-29T07:55:31.961Z,3.77
2023-03-29T07:58:01.549Z,2.30
2023-03-29T08:00:32.979Z,4.07
2023-03-29T08:03:03.762Z,3.60
2023-03-29T08:05:40.739Z,2.50
2023-03-29T08:08:10.899Z,2.23
2023-03-29T08:10:39.737Z,2.40
2023-03-29T08:13:09.797Z,2.97
2023-03-29T08:15:41.981Z,2.50
2023-03-29T08:18:10.684Z,3.03
2023-03-29T08:20:39.390Z,2.90
2023-03-29T08:23:08.204Z,3.57
2023-03-29T08:25:37.282Z,3.37
2023-03-29T08:28:05.934Z,3.40
2023-03-29T08:30:34.644Z,3.43
2023-03-29T08:33:04.757Z,4.03
2023-03-29T08:35:33.472Z,2.60
2023-03-29T08:38:02.211Z,2.47
2023-03-29T08:40:31.696Z,2.20
2023-03-29T08:43:22.916Z,2.57
2023-03-29T08:46:02.673Z,2.00
2023-03-29T08:48:35.051Z,2.30
2023-03-29T08:51:08.644Z,2.83
2023-03-29T08:53:44.111Z,2.83
2023-03-29T08:56:14.736Z,2.33
2023-03-29T08:58:43.541Z,2.30
2023-03-29T09:01:12.253Z,3.00
2023-03-29T09:03:46.187Z,2.70
2023-03-29T09:06:15.616Z,2.90
2023-03-29T09:08:46.864Z,2.47
2023-03-29T09:11:28.457Z,1.93
2023-03-29T09:14:03.635Z,1.77
2023-03-29T09:16:37.966Z,2.03
2023-03-29T09:19:17.774Z,2.30
2023-03-29T09:21:51.575Z,1.70
2023-03-29T09:24:38.770Z,1.80
2023-03-29T09:27:10.543Z,2.73
2023-03-29T09:29:51.293Z,1.67
2023-03-29T09:32:23.410Z,1.87
2023-03-29T09:34:59.441Z,1.60
2023-03-29T09:37:32.718Z,1.77
2023-03-29T09:40:03.212Z,1.70
2023-03-29T09:42:33.775Z,2.10
2023-03-29T09:45:08.474Z,1.60
2023-03-29T09:47:40.712Z,1.37
2023-03-29T09:50:27.739Z,1.50
2023-03-29T09:52:59.617Z,1.20
2023-03-29T09:55:31.047Z,1.30
2023-03-29T09:58:02.439Z,1.40
2023-03-29T10:00:31.101Z,1.60
2023-03-29T10:03:00.342Z,2.00
2023-03-29T10:05:32.497Z,1.70
2023-03-29T10:08:02.262Z,1.40
2023-03-29T10:10:32.852Z,1.43
2023-03-29T10:13:04.328Z,1.53
2023-03-29T10:15:33.247Z,1.00
2023-03-29T10:18:04.197Z,1.30
2023-03-29T10:20:36.463Z,1.20
2023-03-29T10:23:08.065Z,1.23
2023-03-29T10:25:42.155Z,2.10
2023-03-29T10:28:14.708Z,1.10
2023-03-29T10:30:43.802Z,1.20
2023-03-29T10:33:17.519Z,1.07
2023-03-29T10:35:47.990Z,1.20
2023-03-29T10:38:19.183Z,1.50
2023-03-29T10:40:48.926Z,1.97
2023-03-29T10:43:22.825Z,1.63
2023-03-29T10:45:53.751Z,1.30
2023-03-29T10:48:26.648Z,1.50
2023-03-29T10:50:59.890Z,1.20
2023-03-29T10:53:30.703Z,1.20
2023-03-29T10:56:12.701Z,1.40
2023-03-29T10:58:53.103Z,1.40
2023-03-29T11:01:26.524Z,1.50
2023-03-29T11:04:04.095Z,1.50
2023-03-29T11:06:38.402Z,1.50
2023-03-29T11:09:14.147Z,1.90
2023-03-29T11:12:04.419Z,1.43
2023-03-29T11:14:42.579Z,1.50
2023-03-29T11:17:26.583Z,1.50
2023-03-29T11:20:04.455Z,1.47
2023-03-29T11:22:42.362Z,1.93
2023-03-29T11:25:21.185Z,2.40
2023-03-29T11:27:55.488Z,1.70
2023-03-29T11:30:26.889Z,1.10
2023-03-29T11:32:59.935Z,1.20
2023-03-29T11:35:37.409Z,1.40
2023-03-29T11:38:15.257Z,1.20
2023-03-29T11:40:51.416Z,1.30
2023-03-29T11:43:21.972Z,1.13
2023-03-29T11:45:53.411Z,1.50
2023-03-29T11:48:25.000Z,2.03
2023-03-29T11:50:57.695Z,1.70
2023-03-29T11:53:31.126Z,1.20
2023-03-29T11:56:05.364Z,1.40
2023-03-29T11:58:38.843Z,1.50
2023-03-29T12:01:11.327Z,1.20
2023-03-29T12:03:46.345Z,1.10
2023-03-29T12:06:18.546Z,1.27
2023-03-29T12:08:52.055Z,1.00
2023-03-29T12:11:25.545Z,1.00
2023-03-29T12:13:57.803Z,1.23
2023-03-29T12:16:28.896Z,1.10
2023-03-29T12:18:59.427Z,1.07
2023-03-29T12:21:30.206Z,1.20
2023-03-29T12:24:00.275Z,1.63
2023-03-29T12:26:38.005Z,1.10
2023-03-29T12:29:16.635Z,1.17
2023-03-29T12:31:50.288Z,1.00
2023-03-29T12:34:31.033Z,1.30
2023-03-29T12:37:07.226Z,1.00
2023-03-29T12:39:38.004Z,1.20
2023-03-29T12:42:12.608Z,0.90
2023-03-29T12:44:43.042Z,1.20
2023-03-29T12:47:19.361Z,1.20
2023-03-29T12:49:48.428Z,1.10
2023-03-29T12:52:26.925Z,1.13
2023-03-29T12:54:58.425Z,1.20
2023-03-29T12:57:29.522Z,1.00
2023-03-29T13:00:11.681Z,0.90
2023-03-29T13:02:40.608Z,1.53
2023-03-29T13:05:31.636Z,1.30
2023-03-29T13:08:00.433Z,0.97
2023-03-29T13:10:39.074Z,1.00
2023-03-29T13:13:16.568Z,1.00
2023-03-29T13:15:46.132Z,1.40
2023-03-29T13:18:37.612Z,1.27
2023-03-29T13:21:15.055Z,1.13
2023-03-29T13:23:50.202Z,0.90
2023-03-29T13:26:27.999Z,1.00
2023-03-29T13:29:16.216Z,1.10
2023-03-29T13:31:48.240Z,1.20
2023-03-29T13:34:30.957Z,1.20
2023-03-29T13:37:05.872Z,1.00
2023-03-29T13:39:36.815Z,1.00
2023-03-29T13:42:20.062Z,1.00
2023-03-29T13:44:49.761Z,1.00
2023-03-29T13:47:38.300Z,1.00
2023-03-29T13:50:13.731Z,1.10
2023-03-29T13:52:45.636Z,0.80
2023-03-29T13:55:19.374Z,1.17
2023-03-29T13:57:53.134Z,1.07
2023-03-29T14:00:25.286Z,1.00
2023-03-29T14:02:56.381Z,1.30
2023-03-29T14:05:29.660Z,1.47
2023-03-29T14:07:58.963Z,1.30
2023-03-29T14:10:30.921Z,1.53
2023-03-29T14:13:03.993Z,1.40
2023-03-29T14:15:43.936Z,1.00
2023-03-29T14:18:13.382Z,1.10
2023-03-29T14:20:44.628Z,1.40
2023-03-29T14:23:16.059Z,1.27
2023-03-29T14:25:45.023Z,1.17
2023-03-29T14:28:20.948Z,1.67
2023-03-29T14:30:52.457Z,1.23
2023-03-29T14:33:28.883Z,1.30
2023-03-29T14:35:58.640Z,1.20
2023-03-29T14:38:28.030Z,1.30
2023-03-29T14:41:00.215Z,1.30
2023-03-29T14:43:32.087Z,1.30
2023-03-29T14:46:04.477Z,1.43
2023-03-29T14:48:34.846Z,1.00
2023-03-29T14:51:03.731Z,1.10
2023-03-29T14:53:34.246Z,1.00
2023-03-29T14:56:03.373Z,1.23
2023-03-29T14:58:35.709Z,1.20
2023-03-29T15:01:09.163Z,1.30
2023-03-29T15:03:44.933Z,1.23
2023-03-29T15:06:14.235Z,1.27
2023-03-29T15:08:54.148Z,1.20
2023-03-29T15:11:31.360Z,1.10
2023-03-29T15:14:04.947Z,1.13
2023-03-29T15:16:34.368Z,1.10
2023-03-29T15:19:03.480Z,1.20
2023-03-29T15:21:34.458Z,1.10
2023-03-29T15:24:04.165Z,1.10
2023-03-29T15:26:34.388Z,1.23
2023-03-29T15:29:08.543Z,1.40
2023-03-29T15:31:38.621Z,1.20
2023-03-29T15:34:09.532Z,1.03
2023-03-29T15:36:42.176Z,1.30
2023-03-29T15:39:13.055Z,1.70
2023-03-29T15:41:42.056Z,1.10
2023-03-29T15:44:12.406Z,1.30
2023-03-29T15:46:41.741Z,1.40
2023-03-29T15:49:12.022Z,1.37
2023-03-29T15:51:41.362Z,1.10
2023-03-29T15:54:09.987Z,1.10
2023-03-29T15:56:44.714Z,1.57
2023-03-29T15:59:14.797Z,1.53
2023-03-29T16:01:43.650Z,1.50
2023-03-29T16:04:14.322Z,1.53
2023-03-29T16:06:43.785Z,1.33
2023-03-29T16:09:12.823Z,1.27
2023-03-29T16:11:42.745Z,1.53
2023-03-29T16:14:19.005Z,1.57
2023-03-29T16:16:47.825Z,1.63
2023-03-29T16:19:16.477Z,1.40
2023-03-29T16:21:45.341Z,1.27
2023-03-29T16:24:15.956Z,1.23
2023-03-29T16:26:44.728Z,1.43
2023-03-29T16:29:15.980Z,1.53
2023-03-29T16:31:44.926Z,1.60
2023-03-29T16:34:14.232Z,1.70
2023-03-29T16:36:44.046Z,1.43
2023-03-29T16:39:13.052Z,1.87
2023-03-29T16:41:42.628Z,1.30
2023-03-29T16:44:15.730Z,1.57
2023-03-29T16:46:44.903Z,0.97
2023-03-29T16:49:18.188Z,1.40
2023-03-29T16:51:48.128Z,1.53
2023-03-29T16:54:18.851Z,1.70
2023-03-29T16:56:47.597Z,1.40
2023-03-29T16:59:17.674Z,1.37
2023-03-29T17:01:46.439Z,1.23
2023-03-29T17:04:15.096Z,2.17
2023-03-29T17:06:43.741Z,1.30
2023-03-29T17:09:12.605Z,1.20
2023-03-29T17:11:41.316Z,1.50
2023-03-29T17:14:10.041Z,1.40
2023-03-29T17:16:40.131Z,1.80
2023-03-29T17:19:08.835Z,1.90
2023-03-29T17:21:37.507Z,2.67
2023-03-29T17:24:06.767Z,1.80
2023-03-29T17:26:35.497Z,1.43
2023-03-29T17:29:04.174Z,1.73
2023-03-29T17:31:34.816Z,2.23
2023-03-29T17:34:04.916Z,2.10
2023-03-29T17:36:33.760Z,2.03
2023-03-29T17:39:02.962Z,2.60
2023-03-29T17:41:31.691Z,2.27
2023-03-29T17:44:01.092Z,2.53
2023-03-29T17:46:30.184Z,2.30
2023-03-29T17:48:59.132Z,1.97
2023-03-29T17:51:29.177Z,2.10
2023-03-29T17:53:58.256Z,1.90
2023-03-29T17:56:27.301Z,2.10
2023-03-29T17:58:56.053Z,2.07
2023-03-29T18:01:24.748Z,2.07
2023-03-29T18:03:53.422Z,2.20
2023-03-29T18:06:22.168Z,1.87
2023-03-29T18:08:53.193Z,1.70
2023-03-29T18:11:24.569Z,2.70
2023-03-29T18:13:54.185Z,1.77
2023-03-29T18:16:23.366Z,2.17
2023-03-29T18:18:52.271Z,1.73
2023-03-29T18:21:21.076Z,2.47
2023-03-29T18:23:52.864Z,2.10
2023-03-29T18:26:24.168Z,2.10
2023-03-29T18:28:53.273Z,2.43
2023-03-29T18:31:22.998Z,2.93
2023-03-29T18:33:51.739Z,3.00
2023-03-29T18:36:20.481Z,3.37
2023-03-29T18:38:49.181Z,2.90
2023-03-29T18:41:17.810Z,3.80
2023-03-29T18:43:47.787Z,3.17
2023-03-29T18:46:16.598Z,2.80
2023-03-29T18:48:45.344Z,2.63
2023-03-29T18:51:14.923Z,3.50
2023-03-29T18:53:44.323Z,3.43
2023-03-29T18:56:12.925Z,3.03
2023-03-29T18:58:41.550Z,3.00
2023-03-29T19:01:12.731Z,3.00
2023-03-29T19:03:41.804Z,2.90
2023-03-29T19:06:11.747Z,3.80
2023-03-29T19:08:41.512Z,3.87
2023-03-29T19:11:14.233Z,3.27
2023-03-29T19:13:45.444Z,3.63
2023-03-29T19:16:15.456Z,3.77
2023-03-29T19:18:44.081Z,4.20
2023-03-29T19:21:13.068Z,4.80
2023-03-29T19:23:41.700Z,4.30
2023-03-29T19:26:10.625Z,4.00
2023-03-29T19:28:39.257Z,3.80
2023-03-29T19:31:09.024Z,4.60
2023-03-29T19:33:40.823Z,4.40
2023-03-29T19:36:09.703Z,4.30
2023-03-29T19:38:38.392Z,4.83
2023-03-29T19:41:08.799Z,5.50
2023-03-29T19:43:37.409Z,4.70
2023-03-29T19:46:07.055Z,4.43
2023-03-29T19:48:35.825Z,4.17
2023-03-29T19:51:06.706Z,4.40
2023-03-29T19:53:38.506Z,3.70
2023-03-29T19:56:10.661Z,3.30
2023-03-29T19:58:39.424Z,3.43
2023-03-29T20:01:08.378Z,3.30
2023-03-29T20:03:37.118Z,3.50
2023-03-29T20:06:08.078Z,3.70
2023-03-29T20:08:38.850Z,4.30
2023-03-29T20:11:10.181Z,4.53
2023-03-29T20:13:39.790Z,4.80
2023-03-29T20:16:10.031Z,4.40
2023-03-29T20:18:44.703Z,4.60
2023-03-29T20:21:16.397Z,5.20
2023-03-29T20:23:45.661Z,4.97
2023-03-29T20:26:15.335Z,3.83
2023-03-29T20:28:44.116Z,4.33
2023-03-29T20:31:13.054Z,4.00
2023-03-29T20:33:44.333Z,4.03
2023-03-29T20:36:18.617Z,4.20
2023-03-29T20:38:47.425Z,4.40
2023-03-29T20:41:16.616Z,4.17
2023-03-29T20:43:46.205Z,4.67
2023-03-29T20:46:22.342Z,4.00
2023-03-29T20:48:54.041Z,3.77
2023-03-29T20:51:28.055Z,4.87
2023-03-29T20:54:02.197Z,4.37
2023-03-29T20:56:31.448Z,4.20
2023-03-29T20:59:00.275Z,4.90
2023-03-29T21:01:30.994Z,4.17
2023-03-29T21:03:59.722Z,3.87
2023-03-29T21:06:30.160Z,4.40
2023-03-29T21:08:58.860Z,4.07
2023-03-29T21:11:27.647Z,3.77
2023-03-29T21:13:56.273Z,4.30
2023-03-29T21:16:25.589Z,4.73
2023-03-29T21:18:54.406Z,5.00
2023-03-29T21:21:23.604Z,3.97
2023-03-29T21:23:53.579Z,4.30
2023-03-29T21:26:22.730Z,4.87
2023-03-29T21:28:51.452Z,5.10
2023-03-29T21:31:20.478Z,4.50
2023-03-29T21:33:49.217Z,4.80
2023-03-29T21:36:17.873Z,5.10
2023-03-29T21:38:46.744Z,4.30
2023-03-29T21:41:17.291Z,4.30
2023-03-29T21:43:45.979Z,4.93
2023-03-29T21:46:14.927Z,4.30
2023-03-29T21:48:43.677Z,4.43
2023-03-29T21:51:12.324Z,4.30
2023-03-29T21:53:41.013Z,3.90
2023-03-29T21:56:11.823Z,4.43
2023-03-29T21:58:41.784Z,4.47
2023-03-29T22:01:10.995Z,4.27
2023-03-29T22:03:39.725Z,5.27
2023-03-29T22:06:09.691Z,4.93
2023-03-29T22:08:40.391Z,4.93
2023-03-29T22:11:10.811Z,4.90
2023-03-29T22:13:41.101Z,5.10
2023-03-29T22:16:13.522Z,5.03
2023-03-29T22:18:46.823Z,4.90
2023-03-29T22:21:18.319Z,4.23
2023-03-29T22:23:48.091Z,4.40
2023-03-29T22:26:18.036Z,4.27
2023-03-29T22:28:48.177Z,4.07
2023-03-29T22:31:19.712Z,4.60
2023-03-29T22:33:49.235Z,4.40
2023-03-29T22:36:19.474Z,4.70
2023-03-29T22:38:48.720Z,3.90
2023-03-29T22:41:18.073Z,4.37
2023-03-29T22:43:48.108Z,4.20
2023-03-29T22:46:17.010Z,4.57
2023-03-29T22:48:46.097Z,3.57
2023-03-29T22:51:15.029Z,3.80
2023-03-29T22:53:43.752Z,3.90
2023-03-29T22:56:13.224Z,3.90
2023-03-29T22:58:41.914Z,3.70
2023-03-29T23:01:12.035Z,2.97
2023-03-29T23:03:40.714Z,4.00
2023-03-29T23:06:09.340Z,3.40
2023-03-29T23:08:37.953Z,4.00
2023-03-29T23:11:07.381Z,3.33
2023-03-29T23:13:36.286Z,3.77
2023-03-29T23:16:05.442Z,3.60
2023-03-29T23:18:37.402Z,3.50
2023-03-29T23:21:08.836Z,3.50
2023-03-29T23:23:38.188Z,3.50
2023-03-29T23:26:08.332Z,3.50
2023-03-29T23:28:37.266Z,3.13
2023-03-29T23:31:09.588Z,3.67
2023-03-29T23:33:42.545Z,3.23
2023-03-29T23:36:13.302Z,3.83
2023-03-29T23:38:42.660Z,3.90
2023-03-29T23:41:12.740Z,3.70
2023-03-29T23:43:42.696Z,3.60
2023-03-29T23:46:13.332Z,3.80
2023-03-29T23:48:47.103Z,3.60
2023-03-29T23:51:18.138Z,3.83
2023-03-29T23:53:47.339Z,3.40
2023-03-29T23:56:16.222Z,3.60
2023-03-29T23:58:45.537Z,3.30
